createdAt,value
2018-11-04T00:02:05.451Z,12.13
2018-11-04T00:04:33.630Z,12.75
2018-11-04T00:07:01.813Z,13.50
2018-11-04T00:09:29.997Z,12.50
2018-11-04T00:11:58.182Z,12.75
2018-11-04T00:14:26.370Z,12.93
2018-11-04T00:16:54.546Z,12.73
2018-11-04T00:19:22.643Z,12.50
2018-11-04T00:21:50.825Z,12.50
2018-11-04T00:24:18.902Z,12.85
2018-11-04T00:26:47.011Z,12.13
2018-11-04T00:29:15.192Z,12.35
2018-11-04T00:31:43.358Z,12.45
2018-11-04T00:34:11.455Z,12.45
2018-11-04T00:36:39.629Z,11.78
2018-11-04T00:39:08.278Z,12.88
2018-11-04T00:41:36.409Z,12.30
2018-11-04T00:44:04.673Z,12.43
2018-11-04T00:46:32.790Z,12.15
2018-11-04T00:49:00.883Z,12.43
2018-11-04T00:51:29.066Z,12.35
2018-11-04T00:53:57.248Z,12.78
2018-11-04T00:56:25.329Z,12.60
2018-11-04T00:58:53.414Z,13.22
2018-11-04T01:01:21.538Z,12.82
2018-11-04T01:03:49.591Z,12.95
2018-11-04T01:06:17.674Z,12.78
2018-11-04T01:08:45.911Z,13.15
2018-11-04T01:11:13.947Z,12.68
2018-11-04T01:13:42.154Z,13.38
2018-11-04T01:16:10.422Z,14.70
2018-11-04T01:18:38.601Z,14.25
2018-11-04T01:21:06.716Z,15.40
2018-11-04T01:23:34.874Z,13.90
2018-11-04T01:26:02.999Z,13.72
2018-11-04T01:28:31.144Z,14.47
2018-11-04T01:30:59.239Z,15.05
2018-11-04T01:33:27.426Z,14.60
2018-11-04T01:35:55.610Z,14.47
2018-11-04T01:38:23.785Z,14.75
2018-11-04T01:40:51.953Z,14.28
2018-11-04T01:43:19.962Z,15.38
2018-11-04T01:45:48.042Z,14.45
2018-11-04T01:48:16.135Z,13.80
2018-11-04T01:50:44.227Z,15.85
2018-11-04T01:53:12.408Z,14.73
2018-11-04T01:55:40.502Z,14.10
2018-11-04T01:58:08.670Z,14.98
2018-11-04T02:00:36.758Z,15.40
2018-11-04T02:03:04.859Z,14.83
2018-11-04T02:05:33.046Z,15.00
2018-11-04T02:08:01.227Z,14.63
2018-11-04T02:10:29.398Z,15.23
2018-11-04T02:12:57.473Z,14.68
2018-11-04T02:15:25.579Z,14.87
2018-11-04T02:17:53.670Z,15.85
2018-11-04T02:20:21.839Z,15.35
2018-11-04T02:22:49.918Z,14.55
2018-11-04T02:25:18.009Z,15.78
2018-11-04T02:27:46.088Z,15.68
2018-11-04T02:30:15.420Z,15.90
2018-11-04T02:32:44.450Z,17.02
2018-11-04T02:35:13.144Z,15.63
2018-11-04T02:37:41.447Z,16.07
2018-11-04T02:40:10.129Z,15.08
2018-11-04T02:42:38.318Z,15.75
2018-11-04T02:45:06.919Z,15.70
2018-11-04T02:47:35.080Z,16.42
2018-11-04T02:50:03.335Z,17.35
2018-11-04T02:52:31.464Z,16.35
2018-11-04T02:54:59.631Z,16.95
2018-11-04T02:57:28.027Z,16.52
2018-11-04T02:59:56.107Z,17.00
2018-11-04T03:02:24.190Z,16.02
2018-11-04T03:04:52.292Z,15.90
2018-11-04T03:07:20.468Z,16.32
2018-11-04T03:09:48.569Z,17.37
2018-11-04T03:12:16.741Z,16.82
2018-11-04T03:14:44.818Z,16.12
2018-11-04T03:17:12.907Z,17.05
2018-11-04T03:19:40.978Z,15.48
2018-11-04T03:22:09.074Z,17.27
2018-11-04T03:24:37.209Z,16.87
2018-11-04T03:27:05.237Z,17.80
2018-11-04T03:29:33.327Z,16.62
2018-11-04T03:32:01.422Z,17.32
2018-11-04T03:34:29.596Z,16.35
2018-11-04T03:36:57.687Z,16.75
2018-11-04T03:39:25.758Z,16.48
2018-11-04T03:41:53.889Z,16.27
2018-11-04T03:44:22.030Z,16.10
2018-11-04T03:46:50.131Z,15.48
2018-11-04T03:49:18.203Z,16.75
2018-11-04T03:51:46.289Z,16.62
2018-11-04T03:54:14.377Z,16.80
2018-11-04T03:56:42.470Z,17.25
2018-11-04T03:59:10.539Z,17.10
2018-11-04T04:01:38.629Z,17.60
2018-11-04T04:04:06.709Z,17.52
2018-11-04T04:06:34.795Z,17.40
2018-11-04T04:09:02.862Z,17.32
2018-11-04T04:11:30.983Z,16.82
2018-11-04T04:13:59.150Z,16.32
2018-11-04T04:16:27.249Z,17.60
2018-11-04T04:18:55.318Z,16.62
2018-11-04T04:21:23.414Z,16.97
2018-11-04T04:23:51.489Z,17.57
2018-11-04T04:26:19.573Z,17.05
2018-11-04T04:28:47.649Z,16.73
2018-11-04T04:31:15.758Z,17.60
2018-11-04T04:33:43.934Z,16.93
2018-11-04T04:36:12.014Z,17.32
2018-11-04T04:38:40.109Z,16.45
2018-11-04T04:41:08.173Z,17.17
2018-11-04T04:43:36.275Z,16.48
2018-11-04T04:46:04.529Z,17.12
2018-11-04T04:48:32.667Z,16.30
2018-11-04T04:51:00.833Z,16.40
2018-11-04T04:53:28.918Z,16.60
2018-11-04T04:55:57.642Z,16.00
2018-11-04T04:58:25.806Z,16.70
2018-11-04T05:00:54.430Z,16.73
2018-11-04T05:03:22.935Z,17.92
2018-11-04T05:05:51.082Z,19.40
2018-11-04T05:08:19.306Z,19.57
2018-11-04T05:10:47.478Z,22.48
2018-11-04T05:13:15.877Z,22.77
2018-11-04T05:15:44.162Z,19.60
2018-11-04T05:18:12.326Z,19.45
2018-11-04T05:20:40.497Z,21.48
2018-11-04T05:23:08.594Z,20.68
2018-11-04T05:28:35.790Z,20.88
2018-11-04T05:31:03.890Z,19.42
2018-11-04T05:33:32.071Z,19.25
2018-11-04T05:36:00.246Z,19.00
2018-11-04T05:38:28.552Z,20.20
2018-11-04T05:40:56.613Z,17.73
2018-11-04T05:43:24.713Z,18.12
2018-11-04T05:45:52.794Z,19.15
2018-11-04T05:48:20.886Z,20.37
2018-11-04T05:50:48.958Z,20.50
2018-11-04T05:53:17.970Z,20.62
2018-11-04T05:55:46.054Z,19.55
2018-11-04T05:58:14.134Z,21.37
2018-11-04T06:00:42.266Z,20.17
2018-11-04T06:03:10.303Z,20.23
2018-11-04T06:05:38.378Z,19.10
2018-11-04T06:08:06.474Z,19.17
2018-11-04T06:10:34.549Z,19.12
2018-11-04T06:13:02.655Z,20.25
2018-11-04T06:15:30.826Z,19.75
2018-11-04T06:17:58.923Z,19.52
2018-11-04T06:20:26.998Z,19.30
2018-11-04T06:22:55.100Z,20.70
2018-11-04T06:25:23.268Z,19.10
2018-11-04T06:27:51.358Z,19.73
2018-11-04T06:30:19.442Z,19.50
2018-11-04T06:32:47.534Z,19.45
2018-11-04T06:35:15.711Z,19.62
2018-11-04T06:37:43.811Z,20.12
2018-11-04T06:40:11.987Z,20.45
2018-11-04T06:42:40.214Z,19.27
2018-11-04T06:45:09.109Z,19.57
2018-11-04T06:47:37.511Z,19.73
2018-11-04T06:50:07.675Z,18.92
2018-11-04T06:52:35.786Z,20.45
2018-11-04T06:55:03.993Z,19.62
2018-11-04T06:57:32.184Z,19.98
2018-11-04T07:00:00.379Z,19.95
2018-11-04T07:02:28.457Z,19.42
2018-11-04T07:04:56.618Z,19.77
2018-11-04T07:07:24.703Z,18.45
2018-11-04T07:09:52.799Z,18.25
2018-11-04T07:12:20.974Z,18.82
2018-11-04T07:14:49.073Z,21.37
2018-11-04T07:17:17.250Z,19.00
2018-11-04T07:19:45.466Z,18.98
2018-11-04T07:22:13.618Z,21.20
2018-11-04T07:24:41.705Z,21.95
2018-11-04T07:27:09.787Z,24.37
2018-11-04T07:29:37.912Z,25.00
2018-11-04T07:32:06.244Z,25.17
2018-11-04T07:34:34.409Z,24.77
2018-11-04T07:37:02.538Z,25.25
2018-11-04T07:39:30.632Z,23.95
2018-11-04T07:41:58.802Z,24.10
2018-11-04T07:44:27.037Z,21.27
2018-11-04T07:46:55.081Z,21.80
2018-11-04T07:49:23.323Z,21.62
2018-11-04T07:51:51.454Z,22.50
2018-11-04T07:54:19.555Z,21.85
2018-11-04T07:56:47.751Z,21.62
2018-11-04T07:59:15.926Z,21.60
2018-11-04T08:01:44.097Z,22.58
2018-11-04T08:04:12.247Z,21.17
2018-11-04T08:06:40.373Z,22.37
2018-11-04T08:09:09.417Z,23.30
2018-11-04T08:11:37.590Z,21.62
2018-11-04T08:14:05.790Z,22.17
2018-11-04T08:16:33.942Z,23.02
2018-11-04T08:19:02.294Z,22.27
2018-11-04T08:21:30.546Z,23.07
2018-11-04T08:23:58.601Z,23.95
2018-11-04T08:26:26.689Z,24.07
2018-11-04T08:28:54.883Z,25.20
2018-11-04T08:31:23.063Z,24.95
2018-11-04T08:33:51.262Z,23.62
2018-11-04T08:36:19.443Z,21.77
2018-11-04T08:38:47.658Z,23.18
2018-11-04T08:41:15.877Z,22.80
2018-11-04T08:43:43.919Z,25.23
2018-11-04T08:46:12.111Z,26.25
2018-11-04T08:48:40.274Z,26.35
2018-11-04T08:51:08.442Z,25.92
2018-11-04T08:53:36.540Z,27.80
2018-11-04T08:56:04.654Z,27.62
2018-11-04T08:58:32.831Z,29.48
2018-11-04T09:01:01.006Z,28.12
2018-11-04T09:03:29.177Z,29.18
2018-11-04T09:05:57.260Z,29.48
2018-11-04T09:08:25.349Z,27.80
2018-11-04T09:10:53.436Z,28.80
2018-11-04T09:13:21.513Z,29.95
2018-11-04T09:15:49.610Z,27.90
2018-11-04T09:18:17.773Z,29.07
2018-11-04T09:20:45.882Z,29.02
2018-11-04T09:23:14.058Z,28.50
2018-11-04T09:25:42.145Z,27.48
2018-11-04T09:28:10.234Z,28.87
2018-11-04T09:30:38.317Z,28.73
2018-11-04T09:33:06.500Z,28.57
2018-11-04T09:35:34.767Z,28.45
2018-11-04T09:38:02.667Z,27.93
2018-11-04T09:40:30.758Z,29.67
2018-11-04T09:42:58.849Z,29.20
2018-11-04T09:45:27.042Z,27.82
2018-11-04T09:47:55.211Z,30.10
2018-11-04T09:50:23.331Z,28.98
2018-11-04T09:52:51.495Z,32.05
2018-11-04T09:55:19.675Z,30.92
2018-11-04T09:57:47.754Z,30.35
2018-11-04T10:00:15.843Z,29.40
2018-11-04T10:02:43.922Z,28.92
2018-11-04T10:05:12.146Z,27.93
2018-11-04T10:07:40.537Z,28.45
2018-11-04T10:10:11.290Z,27.17
2018-11-04T10:12:40.181Z,27.02
2018-11-04T10:15:09.101Z,26.95
2018-11-04T10:17:37.497Z,28.42
2018-11-04T10:20:07.165Z,27.60
2018-11-04T10:22:34.814Z,27.65
2018-11-04T10:25:02.935Z,26.73
2018-11-04T10:27:31.018Z,27.37
2018-11-04T10:29:59.242Z,26.90
2018-11-04T10:32:27.439Z,26.35
2018-11-04T10:34:55.587Z,26.15
2018-11-04T10:37:23.853Z,27.05
2018-11-04T10:39:51.859Z,27.25
2018-11-04T10:42:20.088Z,25.25
2018-11-04T10:44:48.122Z,25.00
2018-11-04T10:47:16.215Z,26.15
2018-11-04T10:49:44.436Z,25.12
2018-11-04T10:52:12.574Z,26.75
2018-11-04T10:54:40.905Z,24.07
2018-11-04T10:57:09.051Z,26.23
2018-11-04T10:59:37.142Z,24.67
2018-11-04T11:02:05.328Z,24.95
2018-11-04T11:04:33.483Z,25.25
2018-11-04T11:07:01.614Z,24.00
2018-11-04T11:09:29.785Z,26.07
2018-11-04T11:11:57.870Z,25.37
2018-11-04T11:14:26.091Z,24.95
2018-11-04T11:16:54.268Z,26.55
2018-11-04T11:19:22.443Z,25.32
2018-11-04T11:21:50.622Z,24.55
2018-11-04T11:24:18.818Z,23.30
2018-11-04T11:26:47.010Z,23.55
2018-11-04T11:29:15.179Z,24.55
2018-11-04T11:31:43.281Z,23.55
2018-11-04T11:34:11.437Z,22.75
2018-11-04T11:36:39.574Z,23.80
2018-11-04T11:39:09.286Z,21.77
2018-11-04T11:41:37.468Z,23.05
2018-11-04T11:44:05.634Z,24.00
2018-11-04T11:46:33.723Z,23.65
2018-11-04T11:49:01.890Z,22.93
2018-11-04T11:51:30.047Z,21.48
2018-11-04T11:53:58.161Z,22.62
2018-11-04T11:56:26.261Z,23.12
2018-11-04T11:58:54.438Z,22.58
2018-11-04T12:01:22.530Z,21.87
2018-11-04T12:03:50.601Z,21.48
2018-11-04T12:06:18.708Z,22.07
2018-11-04T12:08:47.028Z,20.75
2018-11-04T12:11:15.178Z,19.98
2018-11-04T12:13:43.357Z,19.55
2018-11-04T12:16:11.458Z,20.43
2018-11-04T12:18:39.898Z,20.60
2018-11-04T12:21:08.034Z,19.92
2018-11-04T12:23:36.243Z,21.10
2018-11-04T12:26:04.298Z,19.05
2018-11-04T12:28:32.481Z,20.70
2018-11-04T12:31:00.578Z,20.10
2018-11-04T12:33:28.806Z,18.73
2018-11-04T12:35:56.994Z,19.52
2018-11-04T12:38:25.266Z,22.40
2018-11-04T12:40:53.438Z,18.48
2018-11-04T12:43:21.598Z,18.48
2018-11-04T12:45:49.787Z,18.73
2018-11-04T12:48:17.778Z,18.27
2018-11-04T12:50:45.962Z,18.80
2018-11-04T12:53:14.040Z,16.95
2018-11-04T12:55:42.139Z,18.12
2018-11-04T12:58:10.310Z,19.65
2018-11-04T13:00:38.405Z,18.35
2018-11-04T13:03:06.578Z,17.30
2018-11-04T13:05:34.674Z,16.32
2018-11-04T13:08:02.850Z,17.95
2018-11-04T13:10:30.951Z,17.42
2018-11-04T13:12:59.130Z,17.60
2018-11-04T13:15:27.327Z,17.37
2018-11-04T13:17:55.523Z,17.55
2018-11-04T13:20:23.680Z,16.27
2018-11-04T13:22:51.773Z,16.85
2018-11-04T13:25:19.858Z,17.07
2018-11-04T13:27:47.945Z,16.10
2018-11-04T13:30:16.034Z,15.83
2018-11-04T13:32:44.214Z,15.63
2018-11-04T13:35:12.402Z,15.85
2018-11-04T13:37:40.502Z,15.10
2018-11-04T13:40:09.827Z,15.45
2018-11-04T13:42:38.002Z,15.48
2018-11-04T13:45:06.986Z,15.48
2018-11-04T13:47:35.327Z,15.28
2018-11-04T13:50:03.602Z,14.33
2018-11-04T13:52:31.769Z,14.95
2018-11-04T13:54:59.942Z,14.95
2018-11-04T13:57:28.262Z,15.78
2018-11-04T13:59:56.438Z,14.83
2018-11-04T14:02:24.622Z,14.93
2018-11-04T14:04:52.790Z,15.88
2018-11-04T14:07:20.884Z,16.17
2018-11-04T14:09:49.069Z,15.32
2018-11-04T14:12:17.281Z,14.83
2018-11-04T14:14:45.454Z,15.43
2018-11-04T14:17:13.631Z,13.93
2018-11-04T14:19:41.818Z,14.63
2018-11-04T14:22:10.006Z,13.80
2018-11-04T14:24:38.097Z,14.15
2018-11-04T14:27:06.317Z,14.18
2018-11-04T14:29:34.525Z,12.65
2018-11-04T14:32:02.663Z,13.93
2018-11-04T14:34:30.846Z,11.68
2018-11-04T14:36:59.027Z,12.75
2018-11-04T14:39:27.110Z,13.05
2018-11-04T14:41:55.294Z,13.15
2018-11-04T14:44:23.367Z,13.10
2018-11-04T14:46:51.467Z,12.58
2018-11-04T14:49:19.574Z,13.38
2018-11-04T14:51:47.758Z,12.63
2018-11-04T14:54:15.976Z,11.90
2018-11-04T14:56:44.110Z,12.60
2018-11-04T14:59:12.251Z,10.88
2018-11-04T15:01:40.471Z,11.90
2018-11-04T15:04:08.550Z,11.73
2018-11-04T15:06:36.650Z,11.68
2018-11-04T15:09:06.674Z,12.90
2018-11-04T15:11:34.782Z,11.15
2018-11-04T15:14:02.970Z,11.15
2018-11-04T15:16:31.133Z,11.35
2018-11-04T15:18:59.233Z,11.48
2018-11-04T15:21:27.313Z,11.38
2018-11-04T15:23:55.503Z,10.35
2018-11-04T15:26:23.744Z,10.48
2018-11-04T15:28:51.870Z,10.32
2018-11-04T15:31:19.949Z,10.88
2018-11-04T15:33:48.038Z,10.05
2018-11-04T15:36:16.113Z,9.50
2018-11-04T15:38:44.269Z,10.70
2018-11-04T15:41:12.447Z,9.25
2018-11-04T15:43:40.607Z,9.65
2018-11-04T15:46:08.758Z,10.60
2018-11-04T15:48:36.884Z,9.43
2018-11-04T15:51:05.026Z,10.28
2018-11-04T15:53:33.121Z,10.13
2018-11-04T15:56:01.299Z,9.58
2018-11-04T15:58:29.390Z,10.48
2018-11-04T16:00:57.477Z,9.18
2018-11-04T16:03:25.567Z,10.80
2018-11-04T16:05:53.774Z,10.85
2018-11-04T16:08:21.825Z,10.25
2018-11-04T16:10:49.911Z,9.93
2018-11-04T16:13:18.014Z,9.65
2018-11-04T16:15:46.178Z,9.93
2018-11-04T16:18:14.414Z,10.30
2018-11-04T16:20:42.457Z,9.80
2018-11-04T16:23:10.554Z,9.85
2018-11-04T16:25:38.817Z,8.95
2018-11-04T16:28:06.813Z,9.78
2018-11-04T16:30:34.894Z,9.65
2018-11-04T16:33:02.990Z,9.73
2018-11-04T16:35:31.059Z,9.40
2018-11-04T16:37:59.267Z,9.65
2018-11-04T16:40:27.230Z,10.03
2018-11-04T16:42:55.322Z,9.73
2018-11-04T16:45:23.382Z,9.38
2018-11-04T16:47:51.498Z,8.93
2018-11-04T16:50:19.669Z,8.58
2018-11-04T16:52:47.765Z,10.03
2018-11-04T16:55:15.944Z,9.05
2018-11-04T16:57:44.278Z,9.48
2018-11-04T17:00:12.766Z,9.28
2018-11-04T17:02:40.831Z,9.05
2018-11-04T17:05:10.147Z,10.03
2018-11-04T17:07:38.214Z,9.20
2018-11-04T17:10:06.900Z,10.43
2018-11-04T17:12:34.994Z,18.40
2018-11-04T17:15:03.083Z,18.60
2018-11-04T17:17:31.160Z,23.92
2018-11-04T17:19:59.258Z,22.02
2018-11-04T17:22:27.331Z,16.35
2018-11-04T17:24:55.427Z,10.85
2018-11-04T17:27:23.597Z,10.38
2018-11-04T17:29:51.693Z,9.90
2018-11-04T17:32:19.766Z,9.40
2018-11-04T17:34:47.864Z,10.15
2018-11-04T17:37:15.943Z,9.50
2018-11-04T17:39:44.022Z,9.20
2018-11-04T17:42:12.111Z,9.13
2018-11-04T17:44:40.305Z,9.70
2018-11-04T17:47:08.370Z,9.43
2018-11-04T17:49:36.468Z,9.38
2018-11-04T17:52:04.692Z,9.55
2018-11-04T17:54:32.858Z,10.43
2018-11-04T17:57:01.022Z,10.32
2018-11-04T17:59:29.119Z,9.23
2018-11-04T18:01:57.186Z,9.63
2018-11-04T18:04:25.290Z,8.83
2018-11-04T18:06:53.368Z,9.48
2018-11-04T18:09:21.466Z,10.00
2018-11-04T18:11:50.558Z,9.03
2018-11-04T18:14:18.658Z,9.03
2018-11-04T18:16:46.826Z,11.22
2018-11-04T18:19:14.923Z,9.98
2018-11-04T18:21:42.994Z,8.35
2018-11-04T18:24:11.086Z,7.95
2018-11-04T18:26:39.168Z,8.05
2018-11-04T18:29:07.426Z,8.00
2018-11-04T18:31:35.541Z,7.90
2018-11-04T18:34:03.626Z,7.92
2018-11-04T18:36:31.710Z,7.58
2018-11-04T18:38:59.830Z,7.45
2018-11-04T18:41:27.977Z,7.30
2018-11-04T18:43:56.269Z,7.47
2018-11-04T18:46:24.170Z,7.50
2018-11-04T18:48:52.333Z,7.12
2018-11-04T18:51:20.423Z,7.95
2018-11-04T18:53:48.502Z,8.00
2018-11-04T18:56:16.591Z,7.08
2018-11-04T18:58:44.673Z,7.62
2018-11-04T19:01:12.774Z,7.25
2018-11-04T19:03:41.083Z,7.00
2018-11-04T19:06:09.256Z,6.55
2018-11-04T19:08:37.321Z,6.92
2018-11-04T19:11:05.483Z,7.25
2018-11-04T19:13:33.726Z,7.83
2018-11-04T19:16:01.945Z,7.92
2018-11-04T19:18:30.063Z,7.62
2018-11-04T19:20:58.156Z,8.00
2018-11-04T19:23:26.369Z,7.28
2018-11-04T19:25:54.529Z,7.42
2018-11-04T19:28:22.609Z,7.97
2018-11-04T19:30:50.748Z,8.10
2018-11-04T19:33:18.796Z,8.63
2018-11-04T19:35:46.970Z,8.20
2018-11-04T19:38:15.066Z,7.95
2018-11-04T19:40:43.246Z,9.03
2018-11-04T19:43:11.373Z,8.20
2018-11-04T19:45:39.471Z,8.33
2018-11-04T19:48:07.517Z,9.28
2018-11-04T19:50:35.581Z,8.35
2018-11-04T19:53:03.694Z,9.25
2018-11-04T19:55:31.853Z,9.38
2018-11-04T19:58:00.048Z,9.80
2018-11-04T20:00:28.126Z,9.68
2018-11-04T20:02:56.198Z,8.93
2018-11-04T20:05:24.350Z,9.18
2018-11-04T20:07:52.374Z,8.53
2018-11-04T20:10:20.806Z,8.78
2018-11-04T20:12:54.301Z,7.95
2018-11-04T20:15:22.466Z,7.97
2018-11-04T20:17:50.578Z,8.68
2018-11-04T20:20:25.230Z,9.00
2018-11-04T20:22:53.613Z,9.10
2018-11-04T20:25:27.269Z,8.43
2018-11-04T20:27:55.370Z,9.15
2018-11-04T20:30:23.467Z,8.70
2018-11-04T20:32:56.778Z,9.03
2018-11-04T20:35:24.858Z,9.28
2018-11-04T20:37:52.937Z,8.90
2018-11-04T20:40:26.639Z,8.10
2018-11-04T20:42:54.738Z,8.10
2018-11-04T20:45:22.841Z,8.48
2018-11-04T20:47:56.433Z,8.40
2018-11-04T20:50:30.180Z,8.38
2018-11-04T20:52:58.242Z,8.20
2018-11-04T20:56:29.750Z,8.30
2018-11-04T20:58:57.816Z,8.40
2018-11-04T21:01:25.986Z,8.40
2018-11-04T21:03:54.115Z,7.90
2018-11-04T21:06:22.166Z,8.28
2018-11-04T21:08:50.239Z,8.13
2018-11-04T21:11:18.332Z,8.33
2018-11-04T21:13:46.405Z,8.23
2018-11-04T21:16:14.566Z,8.03
2018-11-04T21:18:42.588Z,8.15
2018-11-04T21:21:10.667Z,7.97
2018-11-04T21:23:38.742Z,7.87
2018-11-04T21:26:06.843Z,8.83
2018-11-04T21:28:35.004Z,9.03
2018-11-04T21:31:03.073Z,7.80
2018-11-04T21:33:31.091Z,8.35
2018-11-04T21:35:59.173Z,8.20
2018-11-04T21:38:27.249Z,8.70
2018-11-04T21:40:55.402Z,8.98
2018-11-04T21:43:23.656Z,9.70
2018-11-04T21:45:51.714Z,8.45
2018-11-04T21:48:19.800Z,8.88
2018-11-04T21:50:47.891Z,8.75
2018-11-04T21:53:15.973Z,8.78
2018-11-04T21:55:44.278Z,8.93
2018-11-04T21:58:13.511Z,8.33
2018-11-04T22:00:41.660Z,8.48
2018-11-04T22:03:09.806Z,8.58
2018-11-04T22:05:37.919Z,8.45
2018-11-04T22:08:06.019Z,8.58
2018-11-04T22:10:34.129Z,7.65
2018-11-04T22:13:02.182Z,8.83
2018-11-04T22:15:30.367Z,8.28
2018-11-04T22:17:58.458Z,8.20
2018-11-04T22:20:26.530Z,7.50
2018-11-04T22:22:54.631Z,8.80
2018-11-04T22:25:22.706Z,8.95
2018-11-04T22:27:50.794Z,7.28
2018-11-04T22:30:18.910Z,7.83
2018-11-04T22:32:47.066Z,8.50
2018-11-04T22:35:15.150Z,7.90
2018-11-04T22:37:43.243Z,7.53
2018-11-04T22:40:12.062Z,8.35
2018-11-04T22:42:40.973Z,7.50
2018-11-04T22:45:10.381Z,7.15
2018-11-04T22:47:38.881Z,8.68
2018-11-04T22:50:09.115Z,7.70
2018-11-04T22:52:37.516Z,7.90
2018-11-04T22:55:05.681Z,8.15
2018-11-04T22:57:33.754Z,8.05
2018-11-04T23:00:01.970Z,7.97
2018-11-04T23:02:30.120Z,7.20
2018-11-04T23:05:03.831Z,8.35
2018-11-04T23:07:31.941Z,7.30
2018-11-04T23:10:00.102Z,8.38
2018-11-04T23:12:28.193Z,8.53
2018-11-04T23:14:56.378Z,8.55
2018-11-04T23:17:24.466Z,8.80
2018-11-04T23:19:52.547Z,8.98
2018-11-04T23:22:20.626Z,9.25
2018-11-04T23:24:48.722Z,9.58
2018-11-04T23:27:16.794Z,9.83
2018-11-04T23:29:44.909Z,10.13
2018-11-04T23:32:13.071Z,11.40
2018-11-04T23:34:41.166Z,11.18
2018-11-04T23:37:09.342Z,11.15
2018-11-04T23:39:37.425Z,11.83
2018-11-04T23:42:05.670Z,11.60
2018-11-04T23:44:33.829Z,11.60
2018-11-04T23:47:01.986Z,11.70
2018-11-04T23:49:30.078Z,11.40
2018-11-04T23:51:58.176Z,11.63
2018-11-04T23:54:26.253Z,11.65
2018-11-04T23:56:54.425Z,12.95
2018-11-04T23:59:22.537Z,12.20
